地図

経路データ

SID SEASON NUMBER BASIN SUBBASIN NAME ISO_TIME NATURE LAT LON WMO_WIND WMO_PRES WMO_AGENCY TRACK_TYPE DIST2LAND LANDFALL IFLAG USA_AGENCY USA_ATCF_ID USA_LAT USA_LON USA_RECORD USA_STATUS USA_WIND USA_PRES USA_SSHS USA_R34_NE USA_R34_SE USA_R34_SW USA_R34_NW USA_R50_NE USA_R50_SE USA_R50_SW USA_R50_NW USA_R64_NE USA_R64_SE USA_R64_SW USA_R64_NW USA_POCI USA_ROCI USA_RMW USA_EYE TOKYO_LAT TOKYO_LON TOKYO_GRADE TOKYO_WIND TOKYO_PRES TOKYO_R50_DIR TOKYO_R50_LONG TOKYO_R50_SHORT TOKYO_R30_DIR TOKYO_R30_LONG TOKYO_R30_SHORT TOKYO_LAND CMA_LAT CMA_LON CMA_CAT CMA_WIND CMA_PRES HKO_LAT HKO_LON HKO_CAT HKO_WIND HKO_PRES NEWDELHI_LAT NEWDELHI_LON NEWDELHI_GRADE NEWDELHI_WIND NEWDELHI_PRES NEWDELHI_CI NEWDELHI_DP NEWDELHI_POCI REUNION_LAT REUNION_LON REUNION_TYPE REUNION_WIND REUNION_PRES REUNION_TNUM REUNION_CI REUNION_RMW REUNION_R34_NE REUNION_R34_SE REUNION_R34_SW REUNION_R34_NW REUNION_R50_NE REUNION_R50_SE REUNION_R50_SW REUNION_R50_NW REUNION_R64_NE REUNION_R64_SE REUNION_R64_SW REUNION_R64_NW BOM_LAT BOM_LON BOM_TYPE BOM_WIND BOM_PRES BOM_TNUM BOM_CI BOM_RMW BOM_R34_NE BOM_R34_SE BOM_R34_SW BOM_R34_NW BOM_R50_NE BOM_R50_SE BOM_R50_SW BOM_R50_NW BOM_R64_NE BOM_R64_SE BOM_R64_SW BOM_R64_NW BOM_ROCI BOM_POCI BOM_EYE BOM_POS_METHOD BOM_PRES_METHOD NADI_LAT NADI_LON NADI_CAT NADI_WIND NADI_PRES WELLINGTON_LAT WELLINGTON_LON WELLINGTON_WIND WELLINGTON_PRES DS824_LAT DS824_LON DS824_STAGE DS824_WIND DS824_PRES TD9636_LAT TD9636_LON TD9636_STAGE TD9636_WIND TD9636_PRES TD9635_LAT TD9635_LON TD9635_WIND TD9635_PRES TD9635_ROCI NEUMANN_LAT NEUMANN_LON NEUMANN_CLASS NEUMANN_WIND NEUMANN_PRES MLC_LAT MLC_LON MLC_CLASS MLC_WIND MLC_PRES USA_GUST BOM_GUST BOM_GUST_PER REUNION_GUST REUNION_GUST_PER USA_SEAHGT USA_SEARAD_NE USA_SEARAD_SE USA_SEARAD_SW USA_SEARAD_NW STORM_SPEED STORM_DIR
1957335S11185 1958 84 SP MM NOT_NAMED 1957-12-01 00:00:00 TS -11.1000 -175.000 main 359 359 O________OO___ jtwc_sh SH021958 -11.1000 -175.000 -1 -11.1000 185.000 TC -11.1000 -175.000 1 4 257
1957335S11185 1958 84 SP MM NOT_NAMED 1957-12-01 03:00:00 TS -11.1485 -175.205 main 374 366 P________PP___ SH021958 -11.1500 -175.210 -1 -11.1500 -175.210 TC -11.1455 -175.195 1 4 256
1957335S11185 1958 84 SP MM NOT_NAMED 1957-12-01 06:00:00 TS -11.1976 -175.394 main 382 382 O________OP___ jtwc_sh SH021958 -11.2000 -175.400 -1 -11.2000 184.600 TC -11.1927 -175.382 1 4 254
1957335S11185 1958 84 SP MM NOT_NAMED 1957-12-01 09:00:00 TS -11.2478 -175.556 main 398 391 P________PP___ SH021958 -11.2500 -175.558 -1 -11.2500 -175.558 TC -11.2436 -175.553 1 3 251
1957335S11185 1958 84 SP MM NOT_NAMED 1957-12-01 12:00:00 TS -11.3000 -175.700 main 399 399 O________OO___ jtwc_sh SH021958 -11.3000 -175.700 -1 -11.3000 184.300 TC -11.3000 -175.700 1 3 249
1957335S11185 1958 84 SP MM NOT_NAMED 1957-12-01 15:00:00 TS -11.3540 -175.845 main 401 401 P________PP___ SH021958 -11.3500 -175.857 -1 -11.3500 -175.857 TC -11.3621 -175.819 1 3 248
1957335S11185 1958 84 SP MM NOT_NAMED 1957-12-01 18:00:00 TS -11.4074 -175.976 main 419 419 O________OP___ jtwc_sh SH021958 -11.4000 -176.000 -1 -11.4000 184.000 TC -11.4223 -175.927 1 2 244
1957335S11185 1958 84 SP MM NOT_NAMED 1957-12-01 21:00:00 TS -11.4621 -176.072 main 422 422 P________PP___ SH021958 -11.4575 -176.085 -1 -11.4575 -176.085 TC -11.4714 -176.047 1 2 247
1957335S11185 1958 84 SP MM NOT_NAMED 1957-12-02 00:00:00 TS -11.5000 -176.200 main 431 431 O________OO___ jtwc_sh SH021958 -11.5000 -176.200 -1 -11.5000 183.800 TC -11.5000 -176.200 1 4 262
1957335S11185 1958 84 SP MM NOT_NAMED 1957-12-02 03:00:00 TS -11.5144 -176.439 main 450 450 P________PP___ SH021958 -11.5150 -176.427 -1 -11.5150 -176.427 TC -11.5131 -176.463 1 5 270
1957335S11185 1958 84 SP MM NOT_NAMED 1957-12-02 06:00:00 TS -11.5009 -176.718 main 479 479 O________OP___ jtwc_sh SH021958 -11.5000 -176.700 -1 -11.5000 183.300 TC -11.5028 -176.753 1 5 275
1957335S11185 1958 84 SP MM NOT_NAMED 1957-12-02 09:00:00 TS -11.4704 -176.992 main 508 508 P________PP___ SH021958 -11.4725 -176.980 -1 -11.4725 -176.980 TC -11.4662 -177.016 1 5 282
1957335S11185 1958 84 SP MM NOT_NAMED 1957-12-02 12:00:00 TS -11.4000 -177.200 main 532 532 O________OO___ jtwc_sh SH021958 -11.4000 -177.200 -1 -11.4000 182.800 TC -11.4000 -177.200 1 4 305
1957335S11185 1958 84 SP MM NOT_NAMED 1957-12-02 15:00:00 TS -11.2606 -177.302 main 547 547 P________PP___ SH021958 -11.2575 -177.310 -1 -11.2575 -177.310 TC -11.2669 -177.285 1 3 343
1957335S11185 1958 84 SP MM NOT_NAMED 1957-12-02 18:00:00 TS -11.1040 -177.293 main 558 554 O________OP___ jtwc_sh SH021958 -11.1000 -177.300 -1 -11.1000 182.700 TC -11.1121 -177.280 1 3 18
1957335S11185 1958 84 SP MM NOT_NAMED 1957-12-02 21:00:00 TS -10.9720 -177.202 main 554 541 P________PP___ SH021958 -10.9699 -177.210 -1 -10.9699 -177.210 TC -10.9763 -177.185 1 4 55
1957335S11185 1958 84 SP MM NOT_NAMED 1957-12-03 00:00:00 TS -10.9000 -177.000 main 541 514 O________OO___ jtwc_sh SH021958 -10.9000 -177.000 -1 -10.9000 183.000 TC -10.9000 -177.000 1 5 83
1957335S11185 1958 84 SP MM NOT_NAMED 1957-12-03 03:00:00 TS -10.9108 -176.681 main 514 472 P________PP___ SH021958 -10.9125 -176.680 -1 -10.9125 -176.680 TC -10.9074 -176.684 1 7 98
1957335S11185 1958 84 SP MM NOT_NAMED 1957-12-03 06:00:00 TS -10.9936 -176.298 main 472 431 O________OP___ jtwc_sh SH021958 -11.0000 -176.300 -1 -11.0000 183.700 TC -10.9808 -176.293 1 8 105
1957335S11185 1958 84 SP MM NOT_NAMED 1957-12-03 09:00:00 TS -11.1179 -175.915 main 431 391 P________PP___ SH021958 -11.1200 -175.920 -1 -11.1200 -175.920 TC -11.1136 -175.906 1 8 114
1957335S11185 1958 84 SP MM NOT_NAMED 1957-12-03 12:00:00 TS -11.3000 -175.600 main 391 360 O________OO___ jtwc_sh SH021958 -11.3000 -175.600 -1 -11.3000 184.400 TC -11.3000 -175.600 1 7 129
1957335S11185 1958 84 SP MM NOT_NAMED 1957-12-03 15:00:00 TS -11.5291 -175.401 main 360 331 P________PP___ SH021958 -11.5274 -175.383 -1 -11.5274 -175.383 TC -11.5325 -175.437 1 6 152
1957335S11185 1958 84 SP MM NOT_NAMED 1957-12-03 18:00:00 TS -11.8040 -175.323 main 331 313 O________OP___ jtwc_sh SH021958 -11.8000 -175.300 -1 -11.8000 184.700 TC -11.8121 -175.370 1 6 176
1957335S11185 1958 84 SP MM NOT_NAMED 1957-12-03 21:00:00 TS -12.1035 -175.358 main 322 312 P________PP___ SH021958 -12.1000 -175.340 -1 -12.1000 -175.340 TC -12.1106 -175.393 1 6 196
1957335S11185 1958 84 SP MM NOT_NAMED 1957-12-04 00:00:00 TS -12.4000 -175.500 main 317 313 O________OO___ jtwc_sh SH021958 -12.4000 -175.500 -1 -12.4000 184.500 TC -12.4000 -175.500 2 7 212
1957335S11185 1958 84 SP MM NOT_NAMED 1957-12-04 03:00:00 TS -12.6633 -175.710 main 326 326 P________PP___ SH021958 -12.6650 -175.727 -1 -12.6650 -175.727 TC -12.6598 -175.675 2 7 223
1957335S11185 1958 84 SP MM NOT_NAMED 1957-12-04 06:00:00 TS -12.9009 -175.975 main 353 351 O________OP___ jtwc_sh SH021958 -12.9000 -176.000 -1 -12.9000 184.000 TC -12.9027 -175.925 2 7 228
1957335S11185 1958 84 SP MM NOT_NAMED 1957-12-04 09:00:00 TS -13.1214 -176.237 main 370 370 P________PP___ SH021958 -13.1225 -176.250 -1 -13.1225 -176.250 TC -13.1192 -176.212 2 7 232
1957335S11185 1958 84 SP MM NOT_NAMED 1957-12-04 12:00:00 TS -13.3000 -176.500 main 401 401 O________OO___ jtwc_sh SH021958 -13.3000 -176.500 -1 -13.3000 183.500 TC -13.3000 -176.500 1 6 240
1957335S11185 1958 84 SP MM NOT_NAMED 1957-12-04 15:00:00 TS -13.4098 -176.756 main 432 432 P________PP___ SH021958 -13.4150 -176.758 -1 -13.4150 -176.758 TC -13.3994 -176.753 1 5 249
1957335S11185 1958 84 SP MM NOT_NAMED 1957-12-04 18:00:00 TS -13.4900 -176.998 main 449 426 O________OP___ jtwc_sh SH021958 -13.5000 -177.000 -1 -13.5000 183.000 TC -13.4700 -176.995 1 5 251
1957335S11185 1958 84 SP MM NOT_NAMED 1957-12-04 21:00:00 TS -13.5652 -177.210 main 426 403 P________PP___ SH021958 -13.5700 -177.208 -1 -13.5700 -177.208 TC -13.5557 -177.215 1 4 242
1957335S11185 1958 84 SP MM NOT_NAMED 1957-12-05 00:00:00 TS -13.7000 -177.400 main 403 372 O________OO___ jtwc_sh SH021958 -13.7000 -177.400 -1 -13.7000 182.600 TC -13.7000 -177.400 1 6 224
1957335S11185 1958 84 SP MM NOT_NAMED 1957-12-05 03:00:00 TS -13.9658 -177.613 main 364 325 P________PP___ SH021958 -13.9625 -177.630 -1 -13.9625 -177.630 TC -13.9724 -177.580 1 7 211
1957335S11185 1958 84 SP MM NOT_NAMED 1957-12-05 06:00:00 TS -14.3016 -177.773 main 325 304 O________OP___ jtwc_sh SH021958 -14.3000 -177.800 -1 -14.3000 182.200 TC -14.3049 -177.719 1 7 197
1957335S11185 1958 84 SP MM NOT_NAMED 1957-12-05 09:00:00 TS -14.6583 -177.835 main 298 280 P________PP___ SH021958 -14.6575 -177.853 -1 -14.6575 -177.853 TC -14.6599 -177.799 1 7 182
1957335S11185 1958 84 SP MM NOT_NAMED 1957-12-05 12:00:00 TS -15.0000 -177.800 main 280 275 O________OO___ jtwc_sh SH021958 -15.0000 -177.800 -1 -15.0000 182.200 TC -15.0000 -177.800 1 6 167
1957335S11185 1958 84 SP MM NOT_NAMED 1957-12-05 15:00:00 TS -15.2631 -177.688 main 275 275 P________PP___ SH021958 -15.2650 -177.680 -1 -15.2650 -177.680 TC -15.2594 -177.704 1 6 151
1957335S11185 1958 84 SP MM NOT_NAMED 1957-12-05 18:00:00 TS -15.5000 -177.511 main 289 286 O________OP___ jtwc_sh SH021958 -15.5000 -177.500 -1 -15.5000 182.500 TC -15.5001 -177.533 1 6 143
1957335S11185 1958 84 SP MM NOT_NAMED 1957-12-05 21:00:00 TS -15.7419 -177.307 main 304 302 P________PP___ SH021958 -15.7425 -177.300 -1 -15.7425 -177.300 TC -15.7407 -177.320 1 6 142
1957335S11185 1958 84 SP MM NOT_NAMED 1957-12-06 00:00:00 TS -16.0000 -177.100 main 321 320 O________OO___ jtwc_sh SH021958 -16.0000 -177.100 -1 -16.0000 182.900 TC -16.0000 -177.100 1 7 147
1957335S11185 1958 84 SP MM NOT_NAMED 1957-12-06 03:00:00 TS -16.2925 -176.940 main 341 341 P________PP___ SH021958 -16.2850 -176.950 -1 -16.2850 -176.950 TC -16.3075 -176.921 1 7 153
1957335S11185 1958 84 SP MM NOT_NAMED 1957-12-06 06:00:00 TS -16.6117 -176.781 main 352 351 O________OP___ jtwc_sh SH021958 -16.6000 -176.800 -1 -16.6000 183.200 TC -16.6350 -176.743 1 7 153
1957335S11185 1958 84 SP MM NOT_NAMED 1957-12-06 09:00:00 TS -16.9567 -176.589 main 373 373 P________PP___ SH021958 -16.9500 -176.600 -1 -16.9500 -176.600 TC -16.9700 -176.568 1 8 152
1957335S11185 1958 84 SP MM NOT_NAMED 1957-12-06 12:00:00 TS -17.3000 -176.400 main 397 397 O________OO___ jtwc_sh SH021958 -17.3000 -176.400 -1 -17.3000 183.600 TC -17.3000 -176.400 1 7 154
1957335S11185 1958 84 SP MM NOT_NAMED 1957-12-06 15:00:00 TS -17.6004 -176.258 main 413 413 P________PP___ SH021958 -17.6075 -176.242 -1 -17.6075 -176.242 TC -17.5864 -176.290 1 6 156
1957335S11185 1958 84 SP MM NOT_NAMED 1957-12-06 18:00:00 TS -17.8897 -176.127 main 442 442 O________OP___ jtwc_sh SH021958 -17.9000 -176.100 -1 -17.9000 183.900 TC -17.8692 -176.181 1 6 157
1957335S11185 1958 84 SP MM NOT_NAMED 1957-12-06 21:00:00 TS -18.1791 -176.002 main 462 462 P________PP___ SH021958 -18.1849 -175.987 -1 -18.1849 -175.987 TC -18.1675 -176.031 1 7 153
1957335S11185 1958 84 SP MM NOT_NAMED 1957-12-07 00:00:00 TS -18.5000 -175.800 main 493 493 O________OO___ jtwc_sh SH021958 -18.5000 -175.800 -1 -18.5000 184.200 TC -18.5000 -175.800 1 9 143
1957335S11185 1958 84 SP MM NOT_NAMED 1957-12-07 03:00:00 TS -18.8857 -175.439 main 550 550 P________PP___ SH021958 -18.8775 -175.452 -1 -18.8775 -175.452 TC -18.9021 -175.413 1 11 136
1957335S11185 1958 84 SP MM NOT_NAMED 1957-12-07 06:00:00 TS -19.3121 -174.982 main 607 607 O________OP___ jtwc_sh SH021958 -19.3000 -175.000 -1 -19.3000 185.000 TC -19.3362 -174.947 1 13 134
1957335S11185 1958 84 SP MM NOT_NAMED 1957-12-07 09:00:00 TS -19.7641 -174.481 main 679 679 P________PP___ SH021958 -19.7576 -174.493 -1 -19.7576 -174.493 TC -19.7771 -174.457 1 13 134
1957335S11185 1958 84 SP MM NOT_NAMED 1957-12-07 12:00:00 TS -20.2000 -174.000 main 731 731 O________OO___ jtwc_sh SH021958 -20.2000 -174.000 -1 -20.2000 186.000 TC -20.2000 -174.000 1 11 135
1957335S11185 1958 84 SP MM NOT_NAMED 1957-12-07 15:00:00 TS -20.5721 -173.615 main 768 768 P________PP___ SH021958 -20.5648 -173.612 -1 -20.5648 -173.612 TC -20.5865 -173.621 1 10 138
1957335S11185 1958 84 SP MM NOT_NAMED 1957-12-07 18:00:00 TS -20.9139 -173.303 main 797 797 O________OP___ jtwc_sh SH021958 -20.9000 -173.300 -1 -20.9000 186.700 TC -20.9417 -173.309 1 9 142
1957335S11185 1958 84 SP MM NOT_NAMED 1957-12-07 21:00:00 TS -21.2554 -173.040 main 840 840 P________PP___ SH021958 -21.2451 -173.038 -1 -21.2451 -173.038 TC -21.2761 -173.044 1 8 146
1957335S11185 1958 84 SP MM NOT_NAMED 1957-12-08 00:00:00 TS -21.6000 -172.800 main 873 O________OO___ jtwc_sh SH021958 -21.6000 -172.800 -1 -21.6000 187.200 TC -21.6000 -172.800 1 8 147

デジタル台風データ・検索

IBTrACS Databaseについて

本データベースは、米国NOAAが公開する1842年以降の世界の熱帯低気圧のベストトラックデータアーカイブInternational Best Track Archive for Climate Stewardship (IBTrACS)を、ウェブで閲覧しやすい形式に変換したものです。

最終更新日:2021-10-25